Private Wetterstation Sandau
Wetterdaten: Donnerstag, 11.10.2012
Datum Zeit Temp. A. Feuchte A. Luftdruck Regen Wind Richtung Richtung Taupunkt Windchill
11.10.2012 00:01 6,9 C 89 % 1014,9 hPa 0,0 l/m 3,6 km/h (1 Bft) W-NW 292 5,2 C 6,9 C
11.10.2012 00:06 6,8 C 89 % 1014,7 hPa 0,0 l/m 1,4 km/h (1 Bft) W-NW 292 5,1 C 6,8 C
11.10.2012 00:11 6,8 C 89 % 1014,7 hPa 0,0 l/m 4,0 km/h (1 Bft) W 270 5,1 C 6,8 C
11.10.2012 00:16 6,6 C 89 % 1014,9 hPa 0,0 l/m 3,2 km/h (1 Bft) W-NW 292 4,9 C 6,6 C
11.10.2012 00:21 6,6 C 89 % 1014,9 hPa 0,0 l/m 4,0 km/h (1 Bft) W 270 4,9 C 6,6 C
11.10.2012 00:26 6,4 C 89 % 1015,0 hPa 0,0 l/m 0,0 km/h (0 Bft) W 270 4,7 C 6,4 C
11.10.2012 00:31 6,4 C 89 % 1014,9 hPa 0,0 l/m 4,0 km/h (1 Bft) W-NW 292 4,7 C 6,4 C
11.10.2012 00:36 6,4 C 89 % 1015,0 hPa 0,0 l/m 2,5 km/h (1 Bft) W-NW 292 4,7 C 6,4 C
11.10.2012 00:41 6,3 C 89 % 1015,0 hPa 0,0 l/m 3,2 km/h (1 Bft) W 270 4,6 C 6,3 C
11.10.2012 00:46 6,3 C 89 % 1015,1 hPa 0,0 l/m 4,3 km/h (1 Bft) NW 315 4,6 C 6,3 C
11.10.2012 00:51 6,2 C 89 % 1015,1 hPa 0,0 l/m 2,5 km/h (1 Bft) W 270 4,5 C 6,2 C
11.10.2012 00:56 6,3 C 90 % 1015,1 hPa 0,0 l/m 0,0 km/h (0 Bft) W 270 4,8 C 6,3 C
11.10.2012 01:01 6,2 C 90 % 1015,1 hPa 0,0 l/m 0,0 km/h (0 Bft) W 270 4,7 C 6,2 C
11.10.2012 01:06 6,2 C 90 % 1015,0 hPa 0,0 l/m 0,0 km/h (0 Bft) W 270 4,7 C 6,2 C
11.10.2012 01:11 6,2 C 90 % 1015,0 hPa 0,0 l/m 4,0 km/h (1 Bft) W-SW 247 4,7 C 6,2 C
11.10.2012 01:16 6,2 C 90 % 1015,1 hPa 0,0 l/m 0,0 km/h (0 Bft) W-NW 292 4,7 C 6,2 C
11.10.2012 01:21 6,1 C 90 % 1015,1 hPa 0,0 l/m 2,9 km/h (1 Bft) W 270 4,6 C 6,1 C
11.10.2012 01:26 6,1 C 90 % 1015,2 hPa 0,0 l/m 2,2 km/h (1 Bft) W-NW 292 4,6 C 6,1 C
11.10.2012 01:31 6,0 C 90 % 1015,3 hPa 0,0 l/m 4,0 km/h (1 Bft) W 270 4,5 C 6,0 C
11.10.2012 01:36 5,9 C 90 % 1015,3 hPa 0,0 l/m 5,8 km/h (2 Bft) W-NW 292 4,4 C 4,8 C
11.10.2012 01:41 5,9 C 90 % 1015,3 hPa 0,0 l/m 5,8 km/h (2 Bft) W-NW 292 4,4 C 4,8 C
11.10.2012 01:46 5,9 C 90 % 1015,5 hPa 0,0 l/m 0,0 km/h (0 Bft) W-NW 292 4,4 C 5,9 C
11.10.2012 01:51 5,8 C 90 % 1015,3 hPa 0,0 l/m 5,4 km/h (1 Bft) W 270 4,3 C 4,8 C
11.10.2012 01:56 5,8 C 90 % 1015,4 hPa 0,0 l/m 5,4 km/h (1 Bft) W 270 4,3 C 4,8 C
11.10.2012 02:01 5,8 C 91 % 1015,4 hPa 0,0 l/m 2,2 km/h (1 Bft) W-SW 247 4,4 C 5,8 C
11.10.2012 02:06 5,6 C 91 % 1015,5 hPa 0,0 l/m 2,5 km/h (1 Bft) W 270 4,2 C 5,6 C
11.10.2012 02:11 5,6 C 91 % 1015,5 hPa 0,0 l/m 2,5 km/h (1 Bft) W 270 4,2 C 5,6 C
11.10.2012 02:16 5,6 C 91 % 1015,6 hPa 0,0 l/m 1,8 km/h (1 Bft) W 270 4,2 C 5,6 C
11.10.2012 02:21 5,6 C 91 % 1015,6 hPa 0,0 l/m 0,0 km/h (0 Bft) W 270 4,2 C 5,6 C
11.10.2012 02:26 5,5 C 91 % 1015,3 hPa 0,0 l/m 2,5 km/h (1 Bft) W-NW 292 4,2 C 5,5 C
11.10.2012 02:31 5,5 C 91 % 1015,3 hPa 0,0 l/m 1,1 km/h (1 Bft) W 270 4,2 C 5,5 C
11.10.2012 02:36 5,4 C 91 % 1015,3 hPa 0,0 l/m 1,4 km/h (1 Bft) W 270 4,1 C 5,4 C
11.10.2012 02:41 5,4 C 91 % 1015,4 hPa 0,0 l/m 2,5 km/h (1 Bft) W 270 4,1 C 5,4 C
11.10.2012 02:46 5,4 C 91 % 1015,3 hPa 0,0 l/m 1,1 km/h (1 Bft) W 270 4,1 C 5,4 C
11.10.2012 02:51 5,3 C 91 % 1015,3 hPa 0,0 l/m 0,0 km/h (0 Bft) W 270 4,0 C 5,3 C
11.10.2012 02:56 5,3 C 91 % 1015,3 hPa 0,0 l/m 0,0 km/h (0 Bft) W 270 4,0 C 5,3 C
11.10.2012 03:01 5,3 C 91 % 1015,3 hPa 0,0 l/m 2,9 km/h (1 Bft) W 270 4,0 C 5,3 C
11.10.2012 03:06 5,3 C 91 % 1015,4 hPa 0,0 l/m 0,0 km/h (0 Bft) W 270 4,0 C 5,3 C
11.10.2012 03:11 5,3 C 91 % 1015,4 hPa 0,0 l/m 0,0 km/h (0 Bft) W 270 4,0 C 5,3 C
11.10.2012 03:16 5,2 C 91 % 1015,4 hPa 0,0 l/m 3,6 km/h (1 Bft) W 270 3,9 C 5,2 C
11.10.2012 03:21 5,2 C 91 % 1015,5 hPa 0,0 l/m 2,2 km/h (1 Bft) W 270 3,9 C 5,2 C
11.10.2012 03:26 5,1 C 91 % 1015,4 hPa 0,0 l/m 2,5 km/h (1 Bft) W 270 3,8 C 5,1 C
11.10.2012 03:31 5,1 C 91 % 1015,3 hPa 0,0 l/m 3,6 km/h (1 Bft) W-NW 292 3,8 C 5,1 C
11.10.2012 03:36 5,1 C 91 % 1015,3 hPa 0,0 l/m 0,0 km/h (0 Bft) W-NW 292 3,8 C 5,1 C
11.10.2012 03:41 5,1 C 91 % 1015,4 hPa 0,0 l/m 2,5 km/h (1 Bft) W-NW 292 3,8 C 5,1 C
11.10.2012 03:46 5,1 C 91 % 1015,4 hPa 0,0 l/m 0,0 km/h (0 Bft) W-NW 292 3,8 C 5,1 C
11.10.2012 03:51 5,0 C 91 % 1015,4 hPa 0,0 l/m 0,0 km/h (0 Bft) W-NW 292 3,7 C 5,0 C
11.10.2012 03:56 4,9 C 91 % 1015,4 hPa 0,5 l/m 1,4 km/h (1 Bft) W-NW 292 3,6 C 4,9 C
11.10.2012 04:01 4,9 C 91 % 1015,5 hPa 0,0 l/m 0,0 km/h (0 Bft) W-NW 292 3,6 C 4,9 C
11.10.2012 04:06 4,9 C 91 % 1015,6 hPa 0,0 l/m 0,0 km/h (0 Bft) W-NW 292 3,6 C 4,9 C
11.10.2012 04:11 4,8 C 91 % 1015,5 hPa 0,0 l/m 0,0 km/h (0 Bft) W-NW 292 3,5 C 4,8 C
11.10.2012 04:16 4,8 C 91 % 1015,5 hPa 0,0 l/m 0,0 km/h (0 Bft) W-NW 292 3,5 C 4,8 C
11.10.2012 04:21 4,8 C 91 % 1015,5 hPa 0,0 l/m 3,6 km/h (1 Bft) W-NW 292 3,5 C 4,8 C
11.10.2012 04:26 4,7 C 91 % 1015,4 hPa 0,0 l/m 1,4 km/h (1 Bft) W-NW 292 3,4 C 4,7 C
11.10.2012 04:31 4,7 C 91 % 1015,5 hPa 0,0 l/m 3,6 km/h (1 Bft) W-NW 292 3,4 C 4,7 C
11.10.2012 04:36 4,7 C 91 % 1015,5 hPa 0,0 l/m 4,0 km/h (1 Bft) W-NW 292 3,4 C 4,7 C
11.10.2012 04:41 4,7 C 91 % 1015,4 hPa 0,0 l/m 3,2 km/h (1 Bft) W 270 3,4 C 4,7 C
11.10.2012 04:46 4,7 C 91 % 1015,3 hPa 0,0 l/m 0,0 km/h (0 Bft) W 270 3,4 C 4,7 C
11.10.2012 04:51 4,7 C 91 % 1015,4 hPa 0,0 l/m 3,6 km/h (1 Bft) W 270 3,4 C 4,7 C
11.10.2012 04:56 4,7 C 91 % 1015,4 hPa 0,0 l/m 0,0 km/h (0 Bft) W 270 3,4 C 4,7 C
11.10.2012 05:01 4,7 C 91 % 1015,4 hPa 0,0 l/m 2,5 km/h (1 Bft) W 270 3,4 C 4,7 C
11.10.2012 05:06 4,6 C 91 % 1015,3 hPa 0,0 l/m 2,9 km/h (1 Bft) W 270 3,3 C 4,6 C
11.10.2012 05:11 4,6 C 91 % 1015,4 hPa 0,0 l/m 2,5 km/h (1 Bft) W 270 3,3 C 4,6 C
11.10.2012 05:16 4,6 C 91 % 1015,6 hPa 0,0 l/m 0,0 km/h (0 Bft) W 270 3,3 C 4,6 C
11.10.2012 05:21 4,5 C 91 % 1015,6 hPa 0,0 l/m 0,0 km/h (0 Bft) W 270 3,2 C 4,5 C
11.10.2012 05:26 4,5 C 91 % 1015,6 hPa 0,0 l/m 0,0 km/h (0 Bft) W 270 3,2 C 4,5 C
11.10.2012 05:31 4,4 C 91 % 1015,6 hPa 0,0 l/m 0,0 km/h (0 Bft) W 270 3,1 C 4,4 C
11.10.2012 05:36 4,3 C 91 % 1015,6 hPa 0,0 l/m 0,0 km/h (0 Bft) W 270 3,0 C 4,3 C
11.10.2012 05:41 4,3 C 92 % 1015,6 hPa 0,0 l/m 0,0 km/h (0 Bft) W 270 3,1 C 4,3 C
11.10.2012 05:46 4,3 C 92 % 1015,6 hPa 0,0 l/m 0,0 km/h (0 Bft) W 270 3,1 C 4,3 C
11.10.2012 05:51 4,2 C 92 % 1015,6 hPa 0,0 l/m 0,0 km/h (0 Bft) W 270 3,0 C 4,2 C
11.10.2012 05:56 4,1 C 92 % 1015,6 hPa 0,0 l/m 0,0 km/h (0 Bft) W 270 2,9 C 4,1 C
11.10.2012 06:01 3,9 C 92 % 1015,5 hPa 0,0 l/m 0,0 km/h (0 Bft) W 270 2,7 C 3,9 C
11.10.2012 06:06 3,9 C 92 % 1015,4 hPa 0,0 l/m 0,0 km/h (0 Bft) W 270 2,7 C 3,9 C
11.10.2012 06:11 3,9 C 92 % 1015,5 hPa 0,0 l/m 0,0 km/h (0 Bft) W 270 2,7 C 3,9 C
11.10.2012 06:16 4,1 C 92 % 1015,5 hPa 0,0 l/m 4,0 km/h (1 Bft) W 270 2,9 C 4,1 C
11.10.2012 06:21 4,3 C 92 % 1015,6 hPa 0,0 l/m 1,4 km/h (1 Bft) W 270 3,1 C 4,3 C
11.10.2012 06:26 4,4 C 92 % 1015,5 hPa 0,0 l/m 2,2 km/h (1 Bft) W 270 3,2 C 4,4 C
11.10.2012 06:31 4,6 C 92 % 1015,3 hPa 0,0 l/m 1,1 km/h (1 Bft) W 270 3,4 C 4,6 C
11.10.2012 06:36 4,8 C 92 % 1015,5 hPa 0,0 l/m 1,4 km/h (1 Bft) W 270 3,6 C 4,8 C
11.10.2012 06:41 4,9 C 92 % 1015,5 hPa 0,0 l/m 0,0 km/h (0 Bft) W 270 3,7 C 4,9 C
11.10.2012 06:46 4,9 C 92 % 1015,4 hPa 0,0 l/m 0,0 km/h (0 Bft) W 270 3,7 C 4,9 C
11.10.2012 06:51 4,9 C 92 % 1015,3 hPa 0,0 l/m 0,0 km/h (0 Bft) W 270 3,7 C 4,9 C
11.10.2012 06:56 4,9 C 92 % 1015,3 hPa 0,0 l/m 0,0 km/h (0 Bft) W 270 3,7 C 4,9 C
11.10.2012 07:01 4,8 C 92 % 1015,4 hPa 0,0 l/m 1,4 km/h (1 Bft) W 270 3,6 C 4,8 C
11.10.2012 07:06 4,8 C 92 % 1015,4 hPa 0,0 l/m 0,0 km/h (0 Bft) W 270 3,6 C 4,8 C
11.10.2012 07:11 4,8 C 92 % 1015,3 hPa 0,0 l/m 0,0 km/h (0 Bft) W 270 3,6 C 4,8 C
11.10.2012 07:16 4,7 C 92 % 1015,4 hPa 0,0 l/m 0,0 km/h (0 Bft) W 270 3,5 C 4,7 C
11.10.2012 07:21 4,6 C 92 % 1015,4 hPa 0,0 l/m 1,4 km/h (1 Bft) W 270 3,4 C 4,6 C
11.10.2012 07:26 4,6 C 92 % 1015,3 hPa 0,0 l/m 0,0 km/h (0 Bft) W 270 3,4 C 4,6 C
11.10.2012 07:31 4,6 C 92 % 1015,3 hPa 0,0 l/m 3,2 km/h (1 Bft) W 270 3,4 C 4,6 C
11.10.2012 07:36 4,6 C 92 % 1015,4 hPa 0,0 l/m 0,0 km/h (0 Bft) W 270 3,4 C 4,6 C
11.10.2012 07:41 4,6 C 92 % 1015,5 hPa 0,0 l/m 1,4 km/h (1 Bft) W 270 3,4 C 4,6 C
11.10.2012 07:46 4,6 C 92 % 1015,4 hPa 0,0 l/m 0,0 km/h (0 Bft) W 270 3,4 C 4,6 C
11.10.2012 07:51 4,6 C 92 % 1015,6 hPa 0,0 l/m 0,0 km/h (0 Bft) W 270 3,4 C 4,6 C
11.10.2012 07:56 4,5 C 92 % 1015,4 hPa 0,0 l/m 0,0 km/h (0 Bft) W 270 3,3 C 4,5 C
11.10.2012 08:01 4,5 C 92 % 1015,3 hPa 0,0 l/m 0,0 km/h (0 Bft) W 270 3,3 C 4,5 C
11.10.2012 08:06 4,6 C 92 % 1015,6 hPa 0,0 l/m 2,5 km/h (1 Bft) W 270 3,4 C 4,6 C
11.10.2012 08:11 4,8 C 92 % 1015,6 hPa 0,0 l/m 1,1 km/h (1 Bft) W 270 3,6 C 4,8 C
11.10.2012 08:16 4,8 C 92 % 1015,6 hPa 0,0 l/m 1,4 km/h (1 Bft) W 270 3,6 C 4,8 C
11.10.2012 08:21 4,9 C 92 % 1015,6 hPa 0,0 l/m 2,2 km/h (1 Bft) W 270 3,7 C 4,9 C
11.10.2012 08:26 5,0 C 92 % 1015,8 hPa 0,0 l/m 2,2 km/h (1 Bft) W 270 3,8 C 5,0 C
11.10.2012 08:31 5,2 C 93 % 1015,7 hPa 0,0 l/m 2,2 km/h (1 Bft) W 270 4,2 C 5,2 C
11.10.2012 08:36 5,3 C 93 % 1015,7 hPa 0,0 l/m 0,0 km/h (0 Bft) W 270 4,3 C 5,3 C
11.10.2012 08:41 5,5 C 93 % 1015,6 hPa 0,0 l/m 0,0 km/h (0 Bft) W 270 4,5 C 5,5 C
11.10.2012 08:46 5,8 C 93 % 1015,7 hPa 0,0 l/m 2,9 km/h (1 Bft) W 270 4,8 C 5,8 C
11.10.2012 08:51 5,9 C 93 % 1015,8 hPa 0,0 l/m 3,2 km/h (1 Bft) W 270 4,9 C 5,9 C
11.10.2012 08:56 6,1 C 93 % 1015,7 hPa 0,0 l/m 3,6 km/h (1 Bft) S-SW 202 5,1 C 6,1 C
11.10.2012 09:01 6,3 C 93 % 1015,8 hPa 0,0 l/m 3,6 km/h (1 Bft) S-SW 202 5,3 C 6,3 C
11.10.2012 09:06 6,4 C 93 % 1016,0 hPa 0,0 l/m 3,2 km/h (1 Bft) W-SW 247 5,4 C 6,4 C
11.10.2012 09:11 6,6 C 93 % 1015,8 hPa 0,0 l/m 2,9 km/h (1 Bft) S-SW 202 5,6 C 6,6 C
11.10.2012 09:16 6,8 C 93 % 1016,0 hPa 0,0 l/m 0,0 km/h (0 Bft) S-SW 202 5,7 C 6,8 C
11.10.2012 09:21 6,9 C 93 % 1015,8 hPa 0,0 l/m 0,0 km/h (0 Bft) W-SW 247 5,8 C 6,9 C
11.10.2012 09:26 7,1 C 93 % 1015,9 hPa 0,0 l/m 5,8 km/h (2 Bft) SW 225 6,0 C 6,2 C
11.10.2012 09:31 7,2 C 93 % 1016,0 hPa 0,0 l/m 0,0 km/h (0 Bft) W 270 6,1 C 7,2 C
11.10.2012 09:36 7,3 C 93 % 1016,1 hPa 0,0 l/m 0,0 km/h (0 Bft) W 270 6,2 C 7,3 C
11.10.2012 09:41 7,4 C 93 % 1016,1 hPa 0,0 l/m 1,1 km/h (1 Bft) W 270 6,3 C 7,4 C
11.10.2012 09:46 7,5 C 93 % 1016,2 hPa 0,0 l/m 2,2 km/h (1 Bft) W 270 6,4 C 7,5 C
11.10.2012 09:51 7,6 C 93 % 1016,1 hPa 0,0 l/m 0,0 km/h (0 Bft) SW 225 6,5 C 7,6 C
11.10.2012 09:56 7,7 C 93 % 1016,1 hPa 0,0 l/m 2,9 km/h (1 Bft) SW 225 6,6 C 7,7 C
11.10.2012 10:01 7,8 C 93 % 1016,3 hPa 0,0 l/m 4,7 km/h (1 Bft) W 270 6,7 C 7,4 C
11.10.2012 10:06 7,9 C 93 % 1016,2 hPa 0,0 l/m 0,0 km/h (0 Bft) SW 225 6,8 C 7,9 C
11.10.2012 10:11 8,1 C 93 % 1016,3 hPa 0,0 l/m 1,8 km/h (1 Bft) SW 225 7,0 C 8,1 C
11.10.2012 10:16 8,2 C 93 % 1016,4 hPa 0,0 l/m 0,0 km/h (0 Bft) SW 225 7,1 C 8,2 C
11.10.2012 10:21 8,4 C 93 % 1016,3 hPa 0,0 l/m 5,0 km/h (1 Bft) SW 225 7,3 C 7,9 C
11.10.2012 10:26 8,4 C 93 % 1016,1 hPa 0,0 l/m 5,8 km/h (2 Bft) W 270 7,3 C 7,7 C
11.10.2012 10:31 8,5 C 93 % 1016,0 hPa 0,0 l/m 5,4 km/h (1 Bft) W-SW 247 7,4 C 7,9 C
11.10.2012 10:36 8,7 C 92 % 1016,3 hPa 0,0 l/m 3,6 km/h (1 Bft) SW 225 7,5 C 8,7 C
11.10.2012 10:41 8,8 C 92 % 1016,3 hPa 0,0 l/m 6,1 km/h (2 Bft) W 270 7,6 C 8,1 C
11.10.2012 10:46 8,9 C 92 % 1016,3 hPa 0,0 l/m 5,0 km/h (1 Bft) W 270 7,7 C 8,5 C
11.10.2012 10:51 9,0 C 92 % 1016,3 hPa 0,0 l/m 5,4 km/h (1 Bft) W-SW 247 7,8 C 8,5 C
11.10.2012 10:56 9,1 C 92 % 1016,4 hPa 0,0 l/m 3,2 km/h (1 Bft) W-SW 247 7,9 C 9,1 C
11.10.2012 11:01 9,2 C 91 % 1016,4 hPa 0,0 l/m 7,2 km/h (2 Bft) W-SW 247 7,8 C 8,2 C
11.10.2012 11:06 9,3 C 91 % 1016,3 hPa 0,0 l/m 0,0 km/h (0 Bft) W-SW 247 7,9 C 9,3 C
11.10.2012 11:11 9,4 C 91 % 1016,3 hPa 0,0 l/m 2,9 km/h (1 Bft) SW 225 8,0 C 9,4 C
11.10.2012 11:16 9,6 C 91 % 1016,4 hPa 0,0 l/m 0,0 km/h (0 Bft) W 270 8,2 C 9,6 C
11.10.2012 11:21 9,8 C 90 % 1016,3 hPa 0,0 l/m 2,2 km/h (1 Bft) S-SW 202 8,2 C 9,8 C
11.10.2012 11:26 9,9 C 90 % 1016,4 hPa 0,0 l/m 2,2 km/h (1 Bft) SW 225 8,3 C 9,9 C
11.10.2012 11:31 9,9 C 90 % 1016,4 hPa 0,0 l/m 1,8 km/h (1 Bft) SW 225 8,3 C 9,9 C
11.10.2012 11:36 10,1 C 89 % 1016,3 hPa 0,0 l/m 0,0 km/h (0 Bft) SW 225 8,4 C 10,1 C
11.10.2012 11:41 10,4 C 89 % 1016,3 hPa 0,0 l/m 2,2 km/h (1 Bft) S-SW 202 8,7 C 10,4 C
11.10.2012 11:46 10,6 C 89 % 1016,3 hPa 0,0 l/m 0,0 km/h (0 Bft) S-SO 157 8,9 C 10,6 C
11.10.2012 11:51 10,9 C 88 % 1016,3 hPa 0,0 l/m 0,0 km/h (0 Bft) S 180 9,0 C 10,9 C
11.10.2012 11:56 11,0 C 88 % 1016,3 hPa 0,0 l/m 3,6 km/h (1 Bft) W-SW 247 9,1 C 11,0 C
11.10.2012 12:01 11,2 C 87 % 1016,3 hPa 0,0 l/m 0,0 km/h (0 Bft) S-SW 202 9,1 C 11,2 C
11.10.2012 12:06 11,3 C 86 % 1016,3 hPa 0,0 l/m 0,0 km/h (0 Bft) W-SW 247 9,0 C 11,3 C
11.10.2012 12:11 11,5 C 86 % 1016,2 hPa 0,0 l/m 0,0 km/h (0 Bft) W-SW 247 9,2 C 11,5 C
11.10.2012 12:16 11,6 C 85 % 1016,2 hPa 0,0 l/m 0,0 km/h (0 Bft) W 270 9,2 C 11,6 C
11.10.2012 12:21 11,9 C 84 % 1016,0 hPa 0,0 l/m 0,0 km/h (0 Bft) O-NO 67 9,3 C 11,9 C
11.10.2012 12:26 11,8 C 82 % 1015,9 hPa 0,0 l/m 1,8 km/h (1 Bft) NO 45 8,8 C 11,8 C
11.10.2012 12:31 11,8 C 81 % 1015,8 hPa 0,0 l/m 4,7 km/h (1 Bft) N 360 8,6 C 11,8 C
11.10.2012 12:36 11,8 C 82 % 1015,8 hPa 0,0 l/m 3,2 km/h (1 Bft) N 360 8,8 C 11,8 C
11.10.2012 12:41 11,6 C 82 % 1015,7 hPa 0,0 l/m 2,9 km/h (1 Bft) N 360 8,6 C 11,6 C
11.10.2012 12:46 11,8 C 82 % 1015,7 hPa 0,0 l/m 0,0 km/h (0 Bft) N 360 8,8 C 11,8 C
11.10.2012 12:51 11,9 C 82 % 1015,7 hPa 0,0 l/m 5,0 km/h (1 Bft) SW 225 8,9 C 11,9 C
11.10.2012 12:56 12,4 C 81 % 1015,6 hPa 0,0 l/m 2,9 km/h (1 Bft) NO 45 9,2 C 12,4 C
11.10.2012 13:01 12,7 C 80 % 1015,7 hPa 0,0 l/m 2,5 km/h (1 Bft) N-NO 22 9,3 C 12,7 C
11.10.2012 13:06 12,9 C 78 % 1015,6 hPa 0,0 l/m 2,2 km/h (1 Bft) N-NO 22 9,2 C 12,9 C
11.10.2012 13:11 13,1 C 77 % 1015,5 hPa 0,0 l/m 1,4 km/h (1 Bft) N-NW 337 9,2 C 13,1 C
11.10.2012 13:16 13,3 C 76 % 1015,6 hPa 0,0 l/m 0,0 km/h (0 Bft) NW 315 9,2 C 13,3 C
11.10.2012 13:21 13,5 C 76 % 1015,6 hPa 0,0 l/m 2,5 km/h (1 Bft) W-NW 292 9,4 C 13,5 C
11.10.2012 13:26 13,7 C 75 % 1015,6 hPa 0,0 l/m 2,2 km/h (1 Bft) W 270 9,3 C 13,7 C
11.10.2012 13:31 13,6 C 73 % 1015,5 hPa 0,0 l/m 0,0 km/h (0 Bft) O-NO 67 8,9 C 13,6 C
11.10.2012 13:36 13,4 C 72 % 1015,4 hPa 0,0 l/m 5,4 km/h (1 Bft) N-NO 22 8,5 C 13,4 C
11.10.2012 13:41 13,2 C 71 % 1015,4 hPa 0,0 l/m 7,2 km/h (2 Bft) N-NO 22 8,1 C 13,2 C
11.10.2012 13:46 12,9 C 71 % 1015,2 hPa 0,0 l/m 4,3 km/h (1 Bft) N-NO 22 7,8 C 12,9 C
11.10.2012 13:51 13,1 C 71 % 1015,1 hPa 0,0 l/m 4,7 km/h (1 Bft) N 360 8,0 C 13,1 C
11.10.2012 13:56 13,3 C 71 % 1015,0 hPa 0,0 l/m 2,9 km/h (1 Bft) NO 45 8,2 C 13,3 C
11.10.2012 14:01 13,4 C 70 % 1015,0 hPa 0,0 l/m 0,0 km/h (0 Bft) N-NO 22 8,0 C 13,4 C
11.10.2012 14:06 13,6 C 68 % 1015,1 hPa 0,0 l/m 2,2 km/h (1 Bft) N 360 7,8 C 13,6 C
11.10.2012 14:11 13,4 C 69 % 1015,0 hPa 0,0 l/m 1,8 km/h (1 Bft) O-SO 112 7,8 C 13,4 C
11.10.2012 14:16 13,3 C 70 % 1015,0 hPa 0,0 l/m 0,0 km/h (0 Bft) SO 135 7,9 C 13,3 C
11.10.2012 14:21 13,4 C 70 % 1015,0 hPa 0,0 l/m 0,0 km/h (0 Bft) SO 135 8,0 C 13,4 C
11.10.2012 14:26 13,4 C 68 % 1015,0 hPa 0,0 l/m 1,8 km/h (1 Bft) O-SO 112 7,6 C 13,4 C
11.10.2012 14:31 13,4 C 69 % 1015,0 hPa 0,0 l/m 0,0 km/h (0 Bft) W-SW 247 7,8 C 13,4 C
11.10.2012 14:36 13,4 C 68 % 1015,0 hPa 0,0 l/m 0,0 km/h (0 Bft) W 270 7,6 C 13,4 C
11.10.2012 14:41 13,4 C 69 % 1014,9 hPa 0,0 l/m 1,8 km/h (1 Bft) S-SO 157 7,8 C 13,4 C
11.10.2012 14:46 13,3 C 69 % 1014,9 hPa 0,0 l/m 1,1 km/h (1 Bft) S-SO 157 7,7 C 13,3 C
11.10.2012 14:51 13,3 C 69 % 1014,9 hPa 0,0 l/m 4,0 km/h (1 Bft) W-SW 247 7,7 C 13,3 C
11.10.2012 14:56 13,3 C 69 % 1014,9 hPa 0,0 l/m 2,2 km/h (1 Bft) W-SW 247 7,7 C 13,3 C
11.10.2012 15:01 13,2 C 69 % 1014,9 hPa 0,0 l/m 3,6 km/h (1 Bft) W 270 7,6 C 13,2 C
11.10.2012 15:06 13,0 C 69 % 1014,9 hPa 0,0 l/m 1,8 km/h (1 Bft) W 270 7,4 C 13,0 C
11.10.2012 15:11 12,9 C 69 % 1014,9 hPa 0,0 l/m 4,0 km/h (1 Bft) W 270 7,4 C 12,9 C
11.10.2012 15:16 12,7 C 69 % 1015,0 hPa 0,0 l/m 6,5 km/h (2 Bft) N 360 7,2 C 12,7 C
11.10.2012 15:21 11,9 C 72 % 1014,9 hPa 0,0 l/m 6,5 km/h (2 Bft) N-NO 22 7,0 C 11,9 C
11.10.2012 15:26 11,4 C 76 % 1014,8 hPa 0,0 l/m 7,2 km/h (2 Bft) N-NO 22 7,3 C 11,4 C
11.10.2012 15:31 10,9 C 78 % 1014,8 hPa 0,0 l/m 1,8 km/h (1 Bft) N 360 7,2 C 10,9 C
11.10.2012 15:36 10,6 C 79 % 1014,9 hPa 0,0 l/m 1,1 km/h (1 Bft) N 360 7,1 C 10,6 C
11.10.2012 15:41 10,6 C 80 % 1014,9 hPa 0,0 l/m 2,5 km/h (1 Bft) O-NO 67 7,3 C 10,6 C
11.10.2012 15:46 10,5 C 81 % 1014,9 hPa 0,0 l/m 3,2 km/h (1 Bft) NO 45 7,4 C 10,5 C
11.10.2012 15:51 10,4 C 80 % 1014,8 hPa 0,0 l/m 3,6 km/h (1 Bft) O-NO 67 7,1 C 10,4 C
11.10.2012 15:56 10,4 C 80 % 1014,8 hPa 0,5 l/m 6,8 km/h (2 Bft) O-NO 67 7,1 C 10,4 C
11.10.2012 16:01 10,4 C 80 % 1014,8 hPa 0,0 l/m 1,4 km/h (1 Bft) NO 45 7,1 C 10,4 C
11.10.2012 16:06 10,4 C 80 % 1014,9 hPa 0,0 l/m 5,4 km/h (1 Bft) NO 45 7,1 C 10,4 C
11.10.2012 16:11 10,4 C 81 % 1014,9 hPa 0,0 l/m 4,7 km/h (1 Bft) N-NO 22 7,3 C 10,4 C
11.10.2012 16:16 10,4 C 81 % 1014,8 hPa 0,0 l/m 1,8 km/h (1 Bft) O-NO 67 7,3 C 10,4 C
11.10.2012 16:21 10,4 C 81 % 1014,8 hPa 0,0 l/m 4,0 km/h (1 Bft) NO 45 7,3 C 10,4 C
11.10.2012 16:26 10,3 C 81 % 1014,8 hPa 0,0 l/m 0,0 km/h (0 Bft) O-NO 67 7,2 C 10,3 C
11.10.2012 16:31 10,4 C 82 % 1014,6 hPa 0,0 l/m 1,8 km/h (1 Bft) NO 45 7,5 C 10,4 C
11.10.2012 16:36 10,4 C 82 % 1014,5 hPa 0,0 l/m 1,1 km/h (1 Bft) O-NO 67 7,5 C 10,4 C
11.10.2012 16:41 10,4 C 82 % 1014,6 hPa 0,0 l/m 2,9 km/h (1 Bft) O-NO 67 7,5 C 10,4 C
11.10.2012 16:46 10,4 C 82 % 1014,6 hPa 0,0 l/m 0,0 km/h (0 Bft) O 90 7,5 C 10,4 C
11.10.2012 16:51 10,5 C 82 % 1014,5 hPa 0,0 l/m 0,0 km/h (0 Bft) O 90 7,6 C 10,5 C
11.10.2012 16:56 10,5 C 81 % 1014,5 hPa 0,0 l/m 2,2 km/h (1 Bft) O 90 7,4 C 10,5 C
11.10.2012 17:01 10,6 C 81 % 1014,5 hPa 0,0 l/m 0,0 km/h (0 Bft) O 90 7,5 C 10,6 C
11.10.2012 17:06 10,7 C 81 % 1014,5 hPa 0,0 l/m 0,0 km/h (0 Bft) O 90 7,6 C 10,7 C
11.10.2012 17:11 10,9 C 81 % 1014,2 hPa 0,0 l/m 2,5 km/h (1 Bft) O-NO 67 7,8 C 10,9 C
11.10.2012 17:16 10,9 C 80 % 1014,1 hPa 0,0 l/m 2,9 km/h (1 Bft) O-SO 112 7,6 C 10,9 C
11.10.2012 17:21 11,0 C 79 % 1014,1 hPa 0,0 l/m 1,1 km/h (1 Bft) O-SO 112 7,5 C 11,0 C
11.10.2012 17:26 10,9 C 79 % 1014,2 hPa 0,0 l/m 1,4 km/h (1 Bft) SO 135 7,4 C 10,9 C
11.10.2012 17:31 11,0 C 79 % 1014,2 hPa 0,0 l/m 0,0 km/h (0 Bft) SO 135 7,5 C 11,0 C
11.10.2012 17:36 10,9 C 79 % 1014,4 hPa 0,0 l/m 1,8 km/h (1 Bft) SO 135 7,4 C 10,9 C
11.10.2012 17:41 10,9 C 79 % 1014,4 hPa 0,0 l/m 2,5 km/h (1 Bft) O-SO 112 7,4 C 10,9 C
11.10.2012 17:46 10,8 C 80 % 1014,2 hPa 0,0 l/m 3,2 km/h (1 Bft) SO 135 7,5 C 10,8 C
11.10.2012 17:51 10,8 C 80 % 1014,1 hPa 0,0 l/m 2,2 km/h (1 Bft) O-SO 112 7,5 C 10,8 C
11.10.2012 17:56 10,7 C 81 % 1014,2 hPa 0,0 l/m 0,0 km/h (0 Bft) O-SO 112 7,6 C 10,7 C
11.10.2012 18:01 10,6 C 81 % 1014,2 hPa 0,0 l/m 2,9 km/h (1 Bft) O-SO 112 7,5 C 10,6 C
11.10.2012 18:06 10,4 C 81 % 1014,1 hPa 0,0 l/m 0,0 km/h (0 Bft) O-SO 112 7,3 C 10,4 C
11.10.2012 18:11 10,3 C 82 % 1014,1 hPa 0,0 l/m 0,0 km/h (0 Bft) O-SO 112 7,4 C 10,3 C
11.10.2012 18:16 10,1 C 82 % 1014,2 hPa 0,0 l/m 3,2 km/h (1 Bft) O-SO 112 7,2 C 10,1 C
11.10.2012 18:21 10,1 C 82 % 1014,2 hPa 0,0 l/m 0,0 km/h (0 Bft) O-SO 112 7,2 C 10,1 C
11.10.2012 18:26 9,9 C 82 % 1014,3 hPa 0,0 l/m 1,1 km/h (1 Bft) O-SO 112 7,0 C 9,9 C
11.10.2012 18:31 9,8 C 83 % 1014,1 hPa 0,0 l/m 0,0 km/h (0 Bft) O-SO 112 7,1 C 9,8 C
11.10.2012 18:36 9,6 C 83 % 1014,1 hPa 0,0 l/m 0,0 km/h (0 Bft) SO 135 6,9 C 9,6 C
11.10.2012 18:41 9,5 C 83 % 1014,1 hPa 0,0 l/m 0,0 km/h (0 Bft) O-SO 112 6,8 C 9,5 C
11.10.2012 18:46 9,4 C 83 % 1014,3 hPa 0,0 l/m 1,1 km/h (1 Bft) SO 135 6,7 C 9,4 C
11.10.2012 18:51 9,3 C 84 % 1014,3 hPa 0,0 l/m 0,0 km/h (0 Bft) SO 135 6,7 C 9,3 C
11.10.2012 18:56 9,2 C 84 % 1014,3 hPa 0,0 l/m 0,0 km/h (0 Bft) SO 135 6,6 C 9,2 C
11.10.2012 19:01 9,1 C 84 % 1014,4 hPa 0,0 l/m 1,4 km/h (1 Bft) O-SO 112 6,5 C 9,1 C
11.10.2012 19:06 9,0 C 85 % 1014,3 hPa 0,0 l/m 2,5 km/h (1 Bft) O-NO 67 6,6 C 9,0 C
11.10.2012 19:11 9,0 C 85 % 1014,2 hPa 0,0 l/m 0,0 km/h (0 Bft) O-NO 67 6,6 C 9,0 C
11.10.2012 19:16 9,0 C 85 % 1014,4 hPa 0,0 l/m 1,4 km/h (1 Bft) O-NO 67 6,6 C 9,0 C
11.10.2012 19:21 9,0 C 86 % 1014,2 hPa 0,0 l/m 0,0 km/h (0 Bft) O-NO 67 6,8 C 9,0 C
11.10.2012 19:26 9,0 C 86 % 1014,2 hPa 0,0 l/m 1,4 km/h (1 Bft) O-NO 67 6,8 C 9,0 C
11.10.2012 19:31 8,9 C 86 % 1014,2 hPa 0,0 l/m 2,5 km/h (1 Bft) O-SO 112 6,7 C 8,9 C
11.10.2012 19:36 8,9 C 86 % 1014,2 hPa 0,0 l/m 3,2 km/h (1 Bft) O-SO 112 6,7 C 8,9 C
11.10.2012 19:41 8,9 C 86 % 1014,3 hPa 0,0 l/m 0,0 km/h (0 Bft) O-SO 112 6,7 C 8,9 C
11.10.2012 19:46 8,8 C 86 % 1014,3 hPa 0,0 l/m 0,0 km/h (0 Bft) O-SO 112 6,6 C 8,8 C
11.10.2012 19:51 8,7 C 86 % 1014,3 hPa 0,0 l/m 1,8 km/h (1 Bft) O-SO 112 6,5 C 8,7 C
11.10.2012 19:56 8,6 C 86 % 1014,3 hPa 0,0 l/m 2,2 km/h (1 Bft) SO 135 6,4 C 8,6 C
11.10.2012 20:01 8,5 C 86 % 1014,3 hPa 0,0 l/m 4,0 km/h (1 Bft) SO 135 6,3 C 8,5 C
11.10.2012 20:06 8,4 C 86 % 1014,2 hPa 0,0 l/m 2,5 km/h (1 Bft) O-SO 112 6,2 C 8,4 C
11.10.2012 20:11 8,2 C 87 % 1014,1 hPa 0,0 l/m 2,5 km/h (1 Bft) O-SO 112 6,2 C 8,2 C
11.10.2012 20:16 8,1 C 87 % 1014,3 hPa 0,0 l/m 0,0 km/h (0 Bft) O-NO 67 6,1 C 8,1 C
11.10.2012 20:21 7,9 C 87 % 1014,3 hPa 0,0 l/m 1,8 km/h (1 Bft) O-NO 67 5,9 C 7,9 C
11.10.2012 20:26 7,8 C 88 % 1014,3 hPa 0,0 l/m 3,2 km/h (1 Bft) O-SO 112 5,9 C 7,8 C
11.10.2012 20:31 7,8 C 88 % 1014,4 hPa 0,0 l/m 3,6 km/h (1 Bft) NO 45 5,9 C 7,8 C
11.10.2012 20:36 7,6 C 88 % 1014,3 hPa 0,0 l/m 2,9 km/h (1 Bft) O-NO 67 5,7 C 7,6 C
11.10.2012 20:41 7,6 C 88 % 1014,5 hPa 0,0 l/m 2,2 km/h (1 Bft) O 90 5,7 C 7,6 C
11.10.2012 20:46 7,5 C 88 % 1014,5 hPa 0,0 l/m 3,6 km/h (1 Bft) O 90 5,6 C 7,5 C
11.10.2012 20:51 7,4 C 88 % 1014,5 hPa 0,0 l/m 2,9 km/h (1 Bft) O-SO 112 5,5 C 7,4 C
11.10.2012 20:56 7,3 C 88 % 1014,6 hPa 0,0 l/m 2,5 km/h (1 Bft) O-SO 112 5,4 C 7,3 C
11.10.2012 21:01 7,2 C 89 % 1014,6 hPa 0,0 l/m 0,0 km/h (0 Bft) O-SO 112 5,5 C 7,2 C
11.10.2012 21:06 7,2 C 89 % 1014,7 hPa 0,0 l/m 0,0 km/h (0 Bft) O-SO 112 5,5 C 7,2 C
11.10.2012 21:11 7,1 C 89 % 1014,6 hPa 0,0 l/m 3,2 km/h (1 Bft) O-SO 112 5,4 C 7,1 C
11.10.2012 21:16 7,0 C 89 % 1014,6 hPa 0,0 l/m 0,0 km/h (0 Bft) O-SO 112 5,3 C 7,0 C
11.10.2012 21:21 6,9 C 89 % 1014,5 hPa 0,0 l/m 2,9 km/h (1 Bft) O-SO 112 5,2 C 6,9 C
11.10.2012 21:26 6,9 C 89 % 1014,5 hPa 0,0 l/m 1,1 km/h (1 Bft) O-SO 112 5,2 C 6,9 C
11.10.2012 21:31 6,8 C 89 % 1014,6 hPa 0,0 l/m 0,0 km/h (0 Bft) NO 45 5,1 C 6,8 C
11.10.2012 21:36 6,8 C 90 % 1014,6 hPa 0,0 l/m 3,6 km/h (1 Bft) O 90 5,3 C 6,8 C
11.10.2012 21:41 6,7 C 90 % 1014,5 hPa 0,0 l/m 2,2 km/h (1 Bft) O 90 5,2 C 6,7 C
11.10.2012 21:46 6,6 C 90 % 1014,5 hPa 0,0 l/m 2,5 km/h (1 Bft) O-SO 112 5,1 C 6,6 C
11.10.2012 21:51 6,6 C 90 % 1014,5 hPa 0,0 l/m 2,9 km/h (1 Bft) O-SO 112 5,1 C 6,6 C
11.10.2012 21:56 6,6 C 90 % 1014,6 hPa 0,0 l/m 3,2 km/h (1 Bft) O-SO 112 5,1 C 6,6 C
11.10.2012 22:01 6,5 C 90 % 1014,6 hPa 0,0 l/m 5,0 km/h (1 Bft) O-SO 112 5,0 C 5,8 C
11.10.2012 22:06 6,5 C 90 % 1014,6 hPa 0,0 l/m 1,4 km/h (1 Bft) O-SO 112 5,0 C 6,5 C
11.10.2012 22:11 6,5 C 90 % 1014,6 hPa 0,0 l/m 1,8 km/h (1 Bft) O-NO 67 5,0 C 6,5 C
11.10.2012 22:16 6,4 C 90 % 1014,5 hPa 0,0 l/m 4,3 km/h (1 Bft) O-NO 67 4,9 C 6,4 C
11.10.2012 22:21 6,4 C 90 % 1014,6 hPa 0,0 l/m 5,0 km/h (1 Bft) O-SO 112 4,9 C 5,7 C
11.10.2012 22:26 6,4 C 90 % 1014,6 hPa 0,0 l/m 2,9 km/h (1 Bft) O-SO 112 4,9 C 6,4 C
11.10.2012 22:31 6,3 C 90 % 1014,6 hPa 0,0 l/m 4,0 km/h (1 Bft) O 90 4,8 C 6,3 C
11.10.2012 22:36 6,3 C 90 % 1014,7 hPa 0,0 l/m 3,2 km/h (1 Bft) O-SO 112 4,8 C 6,3 C
11.10.2012 22:41 6,2 C 90 % 1014,7 hPa 0,0 l/m 0,0 km/h (0 Bft) O 90 4,7 C 6,2 C
11.10.2012 22:46 6,1 C 91 % 1014,6 hPa 0,0 l/m 4,0 km/h (1 Bft) O-SO 112 4,7 C 6,1 C
11.10.2012 22:51 6,1 C 91 % 1014,6 hPa 0,0 l/m 1,4 km/h (1 Bft) O-SO 112 4,7 C 6,1 C
11.10.2012 22:56 6,0 C 91 % 1014,7 hPa 0,0 l/m 1,4 km/h (1 Bft) O 90 4,6 C 6,0 C
11.10.2012 23:01 5,9 C 91 % 1014,7 hPa 0,0 l/m 2,9 km/h (1 Bft) O-SO 112 4,5 C 5,9 C
11.10.2012 23:06 5,9 C 91 % 1014,5 hPa 0,0 l/m 0,0 km/h (0 Bft) SO 135 4,5 C 5,9 C
11.10.2012 23:11 5,9 C 91 % 1014,5 hPa 0,0 l/m 2,2 km/h (1 Bft) SO 135 4,5 C 5,9 C
11.10.2012 23:16 5,8 C 91 % 1014,5 hPa 0,0 l/m 2,9 km/h (1 Bft) SO 135 4,4 C 5,8 C
11.10.2012 23:21 5,8 C 91 % 1014,6 hPa 0,0 l/m 3,6 km/h (1 Bft) O-SO 112 4,4 C 5,8 C
11.10.2012 23:26 5,7 C 91 % 1014,6 hPa 0,0 l/m 2,5 km/h (1 Bft) O-SO 112 4,3 C 5,7 C
11.10.2012 23:31 5,6 C 91 % 1014,5 hPa 0,0 l/m 2,2 km/h (1 Bft) O-SO 112 4,2 C 5,6 C
11.10.2012 23:36 5,6 C 91 % 1014,6 hPa 0,0 l/m 3,2 km/h (1 Bft) O-SO 112 4,2 C 5,6 C
11.10.2012 23:41 5,5 C 91 % 1014,7 hPa 0,0 l/m 3,6 km/h (1 Bft) O-SO 112 4,2 C 5,5 C
11.10.2012 23:46 5,4 C 91 % 1014,6 hPa 0,0 l/m 2,2 km/h (1 Bft) O-SO 112 4,1 C 5,4 C
11.10.2012 23:51 5,4 C 91 % 1014,7 hPa 0,0 l/m 3,6 km/h (1 Bft) O-SO 112 4,1 C 5,4 C
11.10.2012 23:56 5,3 C 91 % 1014,4 hPa 0,0 l/m 0,0 km/h (0 Bft) O-SO 112 4,0 C 5,3 C
_ Min-Zeit 06:01 14:06 17:16 - 00:26 - - 06:01 06:01
Minimum _ 3,9 C 68 % 1014,1 hPa - 0,0 km/h (0 Bft) - - 2,7 C 3,9 C
_ Max-Zeit 13:26 08:31 10:16 03:56 11:01 - - 13:21 13:26
Maximum _ 13,7 C 93 % 1016,4 hPa 0,5 l/m 7,2 km/h
W-SW (2 Bft)
- - 9,4 C 13,7 C
Durchschnitt _ 7,9 C 87 % 1015,2 hPa #1,0 l/m 2,0 km/h (1 Bft) W - 5,8 C 7,8 C
(c) by David Heller